• Join FlightAware (Why Join?)
  • Login
  • US Flag 
08:33PM EST


 

Airport Tracker/Info


-or-


 

Live Flight TrackerFlight Track Log ✈ TCF642 ✈ 01-Jun-2013 ✈ KEWR - KAUS

Flight Track Log - Related Links

Times and Time Zones

All times are in EDT time to prevent confusion due to time zone crossing. See the TCF642 flight status page for this flight to view local times or setup timezone preferences in your user account.

Time Position Orientation Groundspeed Altitude Reporting Facility
EDT Latitude Longitude Course Direction KTS MPH feet Rate Location/Type
05:53PM 40.6333 -74.1833 270° West 170 196 1,800  Level New York TRACON
05:54PM 40.6333 -74.2667 270° West 244 281 3,800 2,520 Climbing New York TRACON
05:55PM 40.6500 -74.3500 285° West 263 303 6,900 2,580 Climbing New York TRACON
05:57PM 40.6950 -74.5481 287° West 291 335 11,600 2,280 Climbing New York Center
05:58PM 40.7128 -74.6450 284° West 306 352 13,900 2,280 Climbing New York Center
05:59PM 40.7833 -74.9982 270° West  Level FlightAware Approximate
05:59PM 40.7375 -74.7725 284° West 321 369 16,300  Level New York Center
06:00PM 40.7606 -74.8917 284° West 327 376 18,100 1,860 Climbing New York Center
06:01PM 40.7833 -75.0108 284° West 337 388 20,000 1,800 Climbing New York Center
06:02PM 40.8039 -75.1381 282° West 342 394 21,700 1,560 Climbing New York Center
06:03PM 40.7825 -75.2628 257° West 350 403 23,200 1,500 Climbing New York Center
06:04PM 40.7586 -75.3956 257° West 366 421 24,800 1,320 Climbing New York Center
06:05PM 40.7139 -75.5211 245° Southwest 376 433 25,900 1,020 Climbing New York Center
06:06PM 40.6667 -75.6575 246° West 390 449 26,900 1,020 Climbing New York Center
06:07PM 40.6131 -75.7931 243° Southwest 402 463 28,000 1,020 Climbing New York Center
06:08PM 40.5547 -75.9364 242° Southwest 424 488 29,000 840 Climbing New York Center
06:09PM 40.4961 -76.0875 243° Southwest 431 496 29,800 900 Climbing New York Center
06:10PM 40.4483 -76.2175 244° Southwest 441 507 30,900 900 Climbing New York Center
06:11PM 40.3917 -76.3603 243° Southwest 441 507 31,600 540 Climbing New York Center
06:12PM 40.3389 -76.5058 245° Southwest 441 507 32,000 180 Climbing New York Center
06:13PM 40.2961 -76.6547 249° West 441 507 32,000  Level New York Center
06:14PM 40.2592 -76.8067 252° West 436 502 32,000  Level New York Center
06:15PM 40.2225 -76.9556 252° West 436 502 32,000  Level New York Center
06:16PM 40.1853 -77.1072 252° West 436 502 32,000  Level New York Center
06:17PM 40.1497 -77.2589 253° West 436 502 32,000  Level New York Center
06:18PM 40.1392 -77.4156 265° West 430 495 32,000  Level New York Center
06:20PM 40.1361 -77.7478 269° West 429 494 32,000  Level Cleveland Center
06:21PM 40.1317 -77.9056 268° West 435 501 32,000  Level Cleveland Center
06:22PM 40.1250 -78.0689 267° West 446 513 32,000  Level Cleveland Center
06:23PM 40.1200 -78.2239 268° West 446 513 32,000  Level Cleveland Center
06:24PM 40.1147 -78.3842 268° West 441 507 32,000  Level Cleveland Center
06:25PM 40.1114 -78.5417 268° West 441 507 32,000  Level Cleveland Center
06:26PM 40.1058 -78.6967 267° West 441 507 32,000  Level Cleveland Center
06:27PM 40.1000 -78.8569 267° West 441 507 32,000  Level Cleveland Center
06:28PM 40.0939 -79.0117 267° West 441 507 32,000  Level Cleveland Center
06:29PM 40.0875 -79.1719 267° West 441 507 32,000  Level Cleveland Center
06:30PM 40.0828 -79.2997 267° West 441 507 32,000  Level Cleveland Center
06:31PM 40.0806 -79.4733 269° West 441 507 32,000  Level Cleveland Center
06:32PM 40.0736 -79.6308 267° West 441 507 32,000  Level Cleveland Center
06:33PM 40.0664 -79.7856 267° West 441 507 32,000  Level Cleveland Center
06:34PM 40.0611 -79.9456 268° West 441 507 32,000  Level Cleveland Center
06:35PM 40.0517 -80.0975 265° West 441 507 32,000  Level Cleveland Center
06:36PM 40.0458 -80.2575 267° West 441 507 32,000  Level Cleveland Center
06:37PM 40.0378 -80.4122 266° West 441 507 32,000  Level Cleveland Center
06:38PM 40.0317 -80.5722 267° West 441 507 32,000  Level Cleveland Center
06:39PM 40.0233 -80.7267 266° West 441 507 32,000  Level Cleveland Center
06:41PM 40.0133 -80.9939 267° West 433 498 32,000  Level Indianapolis Center
06:42PM 40.0117 -81.1528 269° West 433 498 32,000  Level Indianapolis Center
06:43PM 40.0092 -81.3125 269° West 435 501 32,000  Level Indianapolis Center
06:44PM 40.0061 -81.4708 269° West 434 499 32,000  Level Indianapolis Center
06:45PM 40.0025 -81.6297 268° West 434 499 32,000  Level Indianapolis Center
06:46PM 40.0000 -81.7811 269° West 435 501 32,000  Level Indianapolis Center
06:47PM 39.9964 -81.9406 268° West 439 505 32,000  Level Indianapolis Center
06:48PM 39.9922 -82.0983 268° West 434 499 32,000  Level Indianapolis Center
06:49PM 39.9886 -82.2567 268° West 434 499 32,000  Level Indianapolis Center
06:50PM 39.9833 -82.4400 268° West 431 496 32,000  Level Indianapolis Center
06:51PM 39.9794 -82.5967 268° West 429 494 32,000  Level Indianapolis Center
06:52PM 39.9756 -82.7525 268° West 428 493 32,000  Level Indianapolis Center
06:53PM 39.9706 -82.9089 268° West 429 494 32,000  Level Indianapolis Center
06:54PM 39.9656 -83.0636 268° West 426 490 32,000  Level Indianapolis Center
06:55PM 39.9631 -83.2211 269° West 432 497 32,000  Level Indianapolis Center
06:56PM 39.9583 -83.3750 268° West 428 493 32,000  Level Indianapolis Center
06:57PM 39.9525 -83.5278 267° West 430 495 32,000  Level Indianapolis Center
06:58PM 39.9456 -83.6786 267° West 419 482 32,000  Level Indianapolis Center
06:59PM 39.9278 -83.8261 261° West 415 478 32,000  Level Indianapolis Center
07:00PM 39.8644 -83.9781 242° Southwest 408 470 32,000  Level Indianapolis Center
07:01PM 39.8094 -84.1097 241° Southwest 411 473 32,000  Level Indianapolis Center
07:02PM 39.7539 -84.2375 241° Southwest 406 467 32,000  Level Indianapolis Center
07:03PM 39.6919 -84.3608 237° Southwest 404 465 32,000  Level Indianapolis Center
07:04PM 39.6308 -84.4856 238° Southwest 406 467 32,000  Level Indianapolis Center
07:05PM 39.5686 -84.6097 237° Southwest 407 468 32,000  Level Indianapolis Center
07:06PM 39.5078 -84.7344 238° Southwest 406 467 32,000  Level Indianapolis Center
07:07PM 39.4442 -84.8608 237° Southwest 412 474 32,000  Level Indianapolis Center
07:08PM 39.3869 -84.9783 238° Southwest 418 481 32,000  Level Indianapolis Center
07:09PM 39.3228 -85.1033 236° Southwest 418 481 32,000  Level Indianapolis Center
07:10PM 39.2458 -85.2553 237° Southwest 421 484 32,000  Level Indianapolis Center
07:11PM 39.1842 -85.3794 237° Southwest 414 476 32,000  Level Indianapolis Center
07:12PM 39.1211 -85.5031 237° Southwest 411 473 32,000  Level Indianapolis Center
07:13PM 39.0589 -85.6244 237° Southwest 407 468 32,000  Level Indianapolis Center
07:14PM 38.9958 -85.7483 237° Southwest 412 474 32,000  Level Indianapolis Center
07:15PM 38.9322 -85.8725 237° Southwest 415 478 32,000  Level Indianapolis Center
07:16PM 38.8664 -85.9989 236° Southwest 414 476 32,000  Level Indianapolis Center
07:17PM 38.8031 -86.1219 237° Southwest 413 475 32,000  Level Indianapolis Center
07:18PM 38.7386 -86.2436 236° Southwest 412 474 32,000  Level Indianapolis Center
07:19PM 38.6744 -86.3656 236° Southwest 412 474 32,000  Level Indianapolis Center
07:20PM 38.6114 -86.4886 237° Southwest 412 474 32,000  Level Indianapolis Center
07:21PM 38.5472 -86.6100 236° Southwest 411 473 32,000  Level Indianapolis Center
07:22PM 38.4831 -86.7303 236° Southwest 409 471 32,000  Level Indianapolis Center
07:23PM 38.4406 -86.8647 248° West 409 471 32,000  Level Indianapolis Center
07:24PM 38.3992 -87.0264 252° West 419 482 32,000  Level Indianapolis Center
07:25PM 38.3594 -87.1647 250° West 424 488 32,000  Level Indianapolis Center
07:26PM 38.2911 -87.2794 233° Southwest 416 479 32,000  Level Indianapolis Center
07:27PM 38.2186 -87.3853 229° Southwest 404 465 32,000  Level Indianapolis Center
07:28PM 38.1447 -87.4922 229° Southwest 402 463 32,000  Level Indianapolis Center
07:29PM 38.0714 -87.5981 229° Southwest 400 460 32,000  Level Indianapolis Center
07:31PM 37.9989 -87.7022 229° Southwest 397 457 32,000  Level Indianapolis Center
07:32PM 37.9269 -87.8075 229° Southwest 394 453 32,000  Level Indianapolis Center
07:33PM 37.8536 -87.9122 228° Southwest 395 455 32,000  Level Indianapolis Center
07:34PM 37.7806 -88.0161 228° Southwest 394 453 32,000  Level Indianapolis Center
07:35PM 37.7025 -88.1281 229° Southwest 392 451 32,000  Level Indianapolis Center
07:36PM 37.6219 -88.2431 229° Southwest 391 450 32,000  Level Indianapolis Center
07:37PM 37.5506 -88.3447 228° Southwest 387 445 32,000  Level Indianapolis Center
07:37PM 37.5225 -88.3933 234° Southwest 397 457 32,000  Level Memphis Center
07:38PM 37.4511 -88.4917 228° Southwest 392 451 32,000  Level Memphis Center
07:39PM 37.3797 -88.5953 229° Southwest 392 451 32,000  Level Memphis Center
07:40PM 37.3347 -88.6494 224° Southwest 390 449 32,000  Level Indianapolis Center
07:40PM 37.3144 -88.6853 235° Southwest 397 457 32,000  Level Memphis Center
07:41PM 37.2367 -88.7964 229° Southwest 397 457 32,000  Level Memphis Center
07:42PM 37.1628 -88.8967 227° Southwest 397 457 32,000  Level Memphis Center
07:43PM 37.1075 -88.9758 229° Southwest 392 451 32,000  Level Memphis Center
07:44PM 37.0275 -89.0836 227° Southwest 392 451 32,000  Level Memphis Center
07:45PM 36.9514 -89.1914 229° Southwest 392 451 32,000  Level Memphis Center
07:46PM 36.8814 -89.2933 229° Southwest 392 451 32,000  Level Memphis Center
07:47PM 36.8197 -89.4006 234° Southwest 392 451 32,000  Level Memphis Center
07:48PM 36.7581 -89.5075 234° Southwest 387 445 32,000  Level Memphis Center
07:49PM 36.6922 -89.6169 233° Southwest 387 445 32,000  Level Memphis Center
07:50PM 36.6303 -89.7233 234° Southwest 387 445 32,000  Level Memphis Center
07:51PM 36.5639 -89.8325 233° Southwest 392 451 32,000  Level Memphis Center
07:52PM 36.5019 -89.9386 234° Southwest 392 451 32,000  Level Memphis Center
07:53PM 36.4375 -90.0447 233° Southwest 392 451 32,000  Level Memphis Center
07:54PM 36.3731 -90.1481 232° Southwest 392 451 32,000  Level Memphis Center
07:55PM 36.3108 -90.2564 235° Southwest 392 451 32,000  Level Memphis Center
07:56PM 36.2419 -90.3647 232° Southwest 392 451 32,000  Level Memphis Center
07:57PM 36.1794 -90.4728 234° Southwest 392 451 32,000  Level Memphis Center
07:58PM 36.1147 -90.5781 233° Southwest 392 451 32,000  Level Memphis Center
07:59PM 36.0497 -90.6856 233° Southwest 392 451 32,000  Level Memphis Center
08:00PM 35.9828 -90.7931 232° Southwest 392 451 32,000  Level Memphis Center
08:01PM 35.9178 -90.8978 233° Southwest 392 451 32,000  Level Memphis Center
08:02PM 35.8547 -91.0050 234° Southwest 392 451 32,000  Level Memphis Center
08:03PM 35.7872 -91.1094 231° Southwest 387 445 32,000  Level Memphis Center
08:04PM 35.7219 -91.2136 232° Southwest 387 445 32,000  Level Memphis Center
08:05PM 35.6711 -91.3128 238° Southwest 387 445 32,000  Level Memphis Center
08:06PM 35.5953 -91.4267 231° Southwest 387 445 32,000  Level Memphis Center
08:07PM 35.5297 -91.5331 233° Southwest 392 451 32,000  Level Memphis Center
08:08PM 35.4700 -91.6469 237° Southwest 392 451 32,000  Level Memphis Center
08:09PM 35.4228 -91.7686 245° Southwest 392 451 32,000  Level Memphis Center
08:10PM 35.3756 -91.8900 245° Southwest 392 451 32,000  Level Memphis Center
08:11PM 35.3303 -92.0114 245° Southwest 397 457 32,000  Level Memphis Center
08:12PM 35.2847 -92.1325 245° Southwest 397 457 32,000  Level Memphis Center
08:13PM 35.2392 -92.2511 245° Southwest 397 457 32,000  Level Memphis Center
08:14PM 35.1936 -92.3719 245° Southwest 397 457 32,000  Level Memphis Center
08:15PM 35.1478 -92.4903 245° Southwest 397 457 32,000  Level Memphis Center
08:16PM 35.0978 -92.6108 243° Southwest 397 457 32,000  Level Memphis Center
08:17PM 35.0494 -92.7286 243° Southwest 397 457 32,000  Level Memphis Center
08:18PM 34.9953 -92.8414 240° Southwest 397 457 32,000  Level Memphis Center
08:19PM 34.9222 -92.9456 229° Southwest 397 457 32,000  Level Memphis Center
08:20PM 34.8511 -93.0472 230° Southwest 402 463 32,000  Level Memphis Center
08:21PM 34.7803 -93.1458 229° Southwest 402 463 32,000  Level Memphis Center
08:22PM 34.7069 -93.2472 229° Southwest 402 463 32,000  Level Memphis Center
08:23PM 34.6336 -93.3506 229° Southwest 402 463 32,000  Level Memphis Center
08:26PM 34.4617 -93.5953 230° Southwest 400 460 32,000  Level Fort Worth Center
08:27PM 34.3875 -93.6992 229° Southwest 400 460 32,000  Level Fort Worth Center
08:28PM 34.3178 -93.8053 232° Southwest 405 466 32,000  Level Fort Worth Center
08:29PM 34.2689 -93.9281 244° Southwest 410 472 32,000  Level Fort Worth Center
08:30PM 34.2139 -94.0531 242° Southwest 415 478 32,000  Level Fort Worth Center
08:31PM 34.1586 -94.1683 240° Southwest 415 478 32,000  Level Fort Worth Center
08:32PM 34.1031 -94.2883 241° Southwest 415 478 32,000  Level Fort Worth Center
08:33PM 34.0458 -94.4131 241° Southwest 415 478 32,000  Level Fort Worth Center
08:34PM 33.9839 -94.5306 238° Southwest 420 483 32,000  Level Fort Worth Center
08:35PM 33.9217 -94.6475 237° Southwest 420 483 32,000  Level Fort Worth Center
08:36PM 33.8575 -94.7672 237° Southwest 420 483 32,000  Level Fort Worth Center
08:37PM 33.7867 -94.8744 232° Southwest 420 483 32,000  Level Fort Worth Center
08:38PM 33.7008 -94.9692 223° Southwest 420 483 32,000  Level Fort Worth Center
08:39PM 33.6172 -95.0664 224° Southwest 420 483 32,000  Level Fort Worth Center
08:40PM 33.5333 -95.1658 225° Southwest 426 490 32,000  Level Fort Worth Center
08:41PM 33.4433 -95.2578 220° Southwest 426 490 32,000  Level Fort Worth Center
08:42PM 33.3425 -95.3422 215° Southwest 438 504 32,000  Level Fort Worth Center
08:43PM 33.2478 -95.4264 217° Southwest 438 504 32,000  Level Fort Worth Center
08:44PM 33.1531 -95.5128 217° Southwest 433 498 32,000  Level Fort Worth Center
08:45PM 33.0583 -95.5992 217° Southwest 428 493 32,000  Level Fort Worth Center
08:46PM 32.9656 -95.6828 217° Southwest 428 493 32,000  Level Fort Worth Center
08:47PM 32.8706 -95.7661 216° Southwest 428 493 32,000  Level Fort Worth Center
08:48PM 32.7736 -95.8544 217° Southwest 433 498 32,000  Level Fort Worth Center
08:49PM 32.6744 -95.9400 216° Southwest 433 498 32,000  Level Fort Worth Center
08:50PM 32.5794 -96.0253 217° Southwest 433 498 32,000  Level Fort Worth Center
08:51PM 32.4822 -96.1106 217° Southwest 433 498 32,000  Level Fort Worth Center
08:52PM 32.3828 -96.1956 216° Southwest 433 498 32,000  Level Fort Worth Center
08:53PM 32.2833 -96.2831 217° Southwest 438 504 32,000  Level Fort Worth Center
08:54PM 32.1861 -96.3700 217° Southwest 438 504 32,000  Level Fort Worth Center
08:55PM 32.0867 -96.4569 217° Southwest 444 511 32,000  Level Fort Worth Center
08:56PM 31.9850 -96.5414 215° Southwest 449 517 32,000  Level Fort Worth Center
08:57PM 31.8936 -96.6278 219° Southwest 449 517 32,000  Level Fort Worth Center
08:57PM 31.8594 -96.6536 213° Southwest 442 509 32,000  Level Houston Center
08:58PM 31.7592 -96.7403 216° Southwest 443 510 32,000 -720 Level Houston Center
08:59PM 31.6586 -96.8258 216° Southwest 441 507 30,600 -1,860 Descending Houston Center
09:00PM 31.5597 -96.9106 216° Southwest 438 504 28,300 -2,280 Descending Houston Center
09:01PM 31.4617 -96.9944 216° Southwest 432 497 26,000 -2,280 Descending Houston Center
09:02PM 31.3667 -97.0758 216° Southwest 422 486 23,700 -2,400 Descending Houston Center
09:03PM 31.2714 -97.1461 212° Southwest 407 468 21,200 -2,160 Descending Houston Center
09:04PM 31.1675 -97.1956 202° Southwest 398 458 19,400 -1,860 Descending Houston Center
09:05PM 31.0667 -97.2439 202° Southwest 392 451 17,500 -1,860 Descending Houston Center
09:06PM 30.9647 -97.2922 202° Southwest 385 443 15,700 -1,800 Descending Houston Center
09:07PM 30.8617 -97.3408 202° Southwest 372 428 13,900 -1,380 Descending Houston Center
09:08PM 30.7719 -97.3861 203° Southwest 351 404 12,900 -1,560 Descending Houston Center
09:09PM 30.6897 -97.4400 209° Southwest 341 392 10,800 -1,560 Descending Houston Center
09:10PM 30.6161 -97.4844 207° Southwest 305 351 9,800 -1,380 Descending Houston Center
09:11PM 30.5456 -97.5281 208° Southwest 288 331 8,000 -1,860 Descending Houston Center
09:12PM 30.4775 -97.5697 208° Southwest 279 321 6,100 -1,860 Descending Houston Center
09:13PM 30.4172 -97.6069 208° Southwest 251 289 4,300 -1,560 Descending Houston Center
09:14PM 30.3639 -97.6444 211° Southwest 231 266 3,000 -660 Descending Houston Center
09:15PM 30.3206 -97.6747 211° Southwest 191 220 3,000 -660 Level Houston Center
09:16PM 30.2706 -97.6822 187° South 163 188 1,700 -1,080 Descending Houston Center
09:17PM 30.2325 -97.6786 175° South 148 170 900 -540 Descending Houston Center
09:18PM 30.1956 -97.6756 176° South 140 161 700 -240 Descending Houston Center
09:20PM 30.1945 -97.6699 221° Southwest  Level Estimated
09:27PM 30.1945 -97.6699 221° Southwest  Level Estimated